Time;durP1;ratioP1;P1;durP2;ratioP2;P2;SDS_P1;SDS_P2;PMS_P1;PMS_P2;Temp;Humidity;BMP_temperature;BMP_pressure;BME280_temperature;BME280_humidity;BME280_pressure;Samples;Min_cycle;Max_cycle;Signal;HPM_P1;HPM_P2
2023/07/13 00:01:52;;;;;;;9.30;6.90;;;;;;;20.97;73.97;96362.86;110660;1268;22337;-77
2023/07/13 00:04:26;;;;;;;8.40;7.10;;;;;;;21.01;73.95;96363.66;110676;1268;22175;-78
2023/07/13 00:06:58;;;;;;;8.60;7.00;;;;;;;21.01;73.96;96362.37;110680;1271;22269;-78
2023/07/13 00:09:31;;;;;;;10.60;7.20;;;;;;;21.03;74.25;96362.86;110609;1273;22181;-78
2023/07/13 00:12:04;;;;;;;9.10;7.10;;;;;;;21.03;74.41;96361.09;110649;1272;22271;-78
2023/07/13 00:14:36;;;;;;;7.40;6.60;;;;;;;21.03;74.34;96355.31;110668;1258;22251;-78
2023/07/13 00:17:08;;;;;;;9.90;7.20;;;;;;;21.04;74.31;96359.71;110673;1272;22421;-78
2023/07/13 00:19:41;;;;;;;8.40;6.50;;;;;;;21.05;74.61;96362.81;110688;1272;22936;-78
2023/07/13 00:22:13;;;;;;;8.50;7.10;;;;;;;21.03;74.88;96377.27;110658;1265;22268;-78
2023/07/13 00:24:46;;;;;;;11.70;6.90;;;;;;;20.94;74.99;96370.27;110664;1265;22729;-77
2023/07/13 00:27:19;;;;;;;10.30;6.90;;;;;;;20.90;75.52;96356.10;110685;1267;22386;-78
2023/07/13 00:29:52;;;;;;;7.00;6.00;;;;;;;20.86;75.67;96356.86;110680;1272;22178;-78
2023/07/13 00:32:26;;;;;;;7.40;5.80;;;;;;;20.78;76.07;96360.66;110708;1265;22180;-78
2023/07/13 00:35:00;;;;;;;7.40;5.40;;;;;;;20.77;76.25;96371.35;110647;1273;22170;-77
2023/07/13 00:37:32;;;;;;;6.30;4.80;;;;;;;20.72;76.29;96388.86;110676;1268;22905;-77
2023/07/13 00:40:06;;;;;;;6.70;4.20;;;;;;;20.61;75.96;96429.85;110630;1272;22761;-78
2023/07/13 00:42:39;;;;;;;4.80;3.80;;;;;;;20.38;76.30;96449.26;110672;1271;22194;-78
2023/07/13 00:45:56;;;;;;;10.20;4.70;;;;;;;20.29;76.60;96429.25;110672;1272;22344;-78
2023/07/13 00:48:37;;;;;;;5.60;3.70;;;;;;;20.29;76.38;96439.48;110469;1268;22303;-77
2023/07/13 00:51:11;;;;;;;5.10;4.00;;;;;;;20.22;76.48;96449.65;110453;1275;23435;-77
2023/07/13 00:53:51;;;;;;;9.60;3.60;;;;;;;20.14;76.75;96435.24;110439;1275;22217;-78
2023/07/13 00:56:23;;;;;;;6.10;3.40;;;;;;;20.11;76.68;96427.46;110454;1261;22855;-80
2023/07/13 00:58:56;;;;;;;6.50;3.70;;;;;;;20.02;76.64;96430.59;110487;1268;22220;-80
2023/07/13 01:01:29;;;;;;;6.10;3.00;;;;;;;19.86;76.82;96426.00;110488;1268;22235;-80
2023/07/13 01:04:01;;;;;;;8.70;3.50;;;;;;;19.71;77.20;96429.48;110423;1275;22191;-78
2023/07/13 01:06:34;;;;;;;10.10;3.90;;;;;;;19.60;77.61;96413.20;110427;1268;22292;-79
2023/07/13 01:09:07;;;;;;;6.60;3.30;;;;;;;19.56;78.20;96405.70;110403;1261;22242;-78
2023/07/13 01:11:40;;;;;;;7.90;3.70;;;;;;;19.54;78.41;96423.61;108485;1271;22955;-78
2023/07/13 01:14:11;;;;;;;5.90;2.80;;;;;;;19.53;78.44;96422.48;108412;1271;23232;-78
2023/07/13 01:16:47;;;;;;;9.10;3.40;;;;;;;19.54;78.49;96405.70;110450;1268;22227;-78
2023/07/13 01:19:35;;;;;;;8.10;3.00;;;;;;;19.55;78.63;96414.27;110626;1270;22380;-78
2023/07/13 01:22:11;;;;;;;5.00;3.30;;;;;;;19.46;78.33;96455.86;110804;1271;22158;-78
2023/07/13 01:24:46;;;;;;;9.30;4.00;;;;;;;19.33;78.96;96478.73;110765;1271;22167;-78
2023/07/13 01:27:23;;;;;;;5.10;2.80;;;;;;;19.32;79.64;96481.55;110775;1271;22147;-78
2023/07/13 01:30:03;;;;;;;8.50;3.20;;;;;;;19.30;79.36;96504.02;110779;1265;22248;-78
2023/07/13 01:32:36;;;;;;;7.40;3.70;;;;;;;19.27;79.65;96496.14;110766;1271;22164;-79
2023/07/13 01:35:09;;;;;;;8.80;3.50;;;;;;;19.28;80.02;96476.46;110751;1271;22264;-79
2023/07/13 01:37:42;;;;;;;5.50;2.90;;;;;;;19.27;79.80;96467.72;110793;1271;22294;-78
2023/07/13 01:40:14;;;;;;;8.30;3.50;;;;;;;19.06;79.55;96457.17;110762;1271;23192;-78
2023/07/13 01:42:47;;;;;;;5.30;2.90;;;;;;;18.90;80.42;96456.51;110784;1271;22770;-78
2023/07/13 01:45:20;;;;;;;5.10;2.90;;;;;;;18.90;81.37;96459.73;110788;1271;22368;-78
2023/07/13 01:47:54;;;;;;;7.20;3.20;;;;;;;18.94;81.37;96447.14;110743;1271;22281;-78
2023/07/13 01:50:34;;;;;;;6.20;3.30;;;;;;;18.98;81.53;96437.88;110769;1271;22274;-78
2023/07/13 01:53:07;;;;;;;6.60;3.10;;;;;;;19.04;81.80;96436.84;110750;1271;22372;-78
2023/07/13 01:55:39;;;;;;;4.90;3.80;;;;;;;19.05;81.90;96433.56;110776;1263;22135;-78
2023/07/13 01:58:12;;;;;;;5.10;2.90;;;;;;;19.05;81.72;96431.64;110770;1264;22308;-78
2023/07/13 02:00:43;;;;;;;6.90;3.30;;;;;;;19.04;82.04;96434.23;110729;1271;22144;-78
2023/07/13 02:03:17;;;;;;;6.90;3.30;;;;;;;19.07;82.15;96441.14;110756;1271;22280;-78
2023/07/13 02:05:52;;;;;;;5.00;3.20;;;;;;;19.06;82.17;96437.97;110754;1271;22365;-78
2023/07/13 02:08:25;;;;;;;7.10;3.20;;;;;;;19.04;82.22;96438.61;110775;1268;22785;-78
2023/07/13 02:10:57;;;;;;;5.40;3.30;;;;;;;19.03;82.40;96431.60;110753;1271;22277;-78
2023/07/13 02:13:33;;;;;;;5.00;3.30;;;;;;;19.01;82.40;96429.31;110750;1271;22240;-78
2023/07/13 02:16:06;;;;;;;5.70;3.10;;;;;;;18.97;82.47;96427.20;110730;1264;24025;-78
2023/07/13 02:18:38;;;;;;;5.80;3.30;;;;;;;18.96;82.78;96430.84;110742;1271;22269;-78
2023/07/13 02:21:11;;;;;;;6.70;3.80;;;;;;;18.98;82.96;96421.46;110779;1271;22392;-78
2023/07/13 02:23:43;;;;;;;4.70;2.90;;;;;;;19.00;82.95;96408.70;110757;1266;22205;-78
2023/07/13 02:26:16;;;;;;;6.30;3.20;;;;;;;19.01;82.95;96399.89;110762;1270;22915;-78
2023/07/13 02:28:49;;;;;;;4.90;3.10;;;;;;;19.01;83.01;96396.38;110745;1271;22204;-78
2023/07/13 02:31:27;;;;;;;3.90;2.90;;;;;;;19.03;83.16;96392.91;110776;1264;22306;-78
2023/07/13 02:34:00;;;;;;;5.70;3.40;;;;;;;18.99;83.05;96387.55;110787;1266;22349;-78
2023/07/13 02:36:33;;;;;;;5.80;3.10;;;;;;;18.94;83.22;96382.66;110725;1271;22746;-78
2023/07/13 02:39:08;;;;;;;5.90;2.70;;;;;;;18.93;83.53;96390.00;110732;1271;22383;-78
2023/07/13 02:41:41;;;;;;;4.40;2.70;;;;;;;18.90;83.39;96389.44;110733;1251;22364;-78
2023/07/13 02:44:17;;;;;;;5.20;2.90;;;;;;;18.86;83.34;96388.86;110727;1271;22470;-77
2023/07/13 02:46:50;;;;;;;6.40;3.10;;;;;;;18.84;83.56;96389.48;110766;1268;22916;-78
2023/07/13 02:49:26;;;;;;;4.40;3.00;;;;;;;18.83;83.63;96388.83;110711;1271;22371;-78
2023/07/13 02:51:59;;;;;;;5.40;3.00;;;;;;;18.85;83.91;96384.57;110764;1268;23309;-78
2023/07/13 02:54:30;;;;;;;3.40;2.70;;;;;;;18.89;84.10;96385.10;110770;1270;22173;-78
2023/07/13 02:57:07;;;;;;;7.30;2.70;;;;;;;18.92;83.99;96391.41;110738;1268;22721;-78
2023/07/13 02:59:39;;;;;;;3.30;2.50;;;;;;;18.91;83.73;96394.48;110717;1268;22351;-77
2023/07/13 03:02:11;;;;;;;3.50;2.90;;;;;;;18.92;83.62;96396.09;110738;1268;22254;-78
2023/07/13 03:04:44;;;;;;;4.50;2.70;;;;;;;18.92;83.78;96385.59;110713;1271;22451;-77
2023/07/13 03:07:17;;;;;;;4.90;3.00;;;;;;;18.94;83.83;96376.59;110733;1271;22798;-78
2023/07/13 03:09:49;;;;;;;4.30;2.80;;;;;;;18.96;83.88;96367.66;110678;1271;22128;-77
2023/07/13 03:12:22;;;;;;;4.70;3.20;;;;;;;18.99;83.97;96364.44;110700;1272;22242;-78
2023/07/13 03:14:54;;;;;;;3.10;2.70;;;;;;;19.00;83.94;96366.33;110667;1272;22173;-77
2023/07/13 03:17:26;;;;;;;3.90;3.10;;;;;;;19.01;83.98;96369.42;110695;1272;22376;-78
2023/07/13 03:20:00;;;;;;;3.40;3.00;;;;;;;19.00;83.87;96372.70;110704;1272;22900;-78
2023/07/13 03:22:32;;;;;;;4.10;3.00;;;;;;;18.97;83.89;96377.91;110615;1266;22429;-77
2023/07/13 03:25:07;;;;;;;4.00;3.20;;;;;;;18.94;83.88;96378.20;110650;1272;22255;-77
2023/07/13 03:27:39;;;;;;;3.50;3.10;;;;;;;18.91;83.97;96373.05;110676;1271;22821;-77
2023/07/13 03:30:15;;;;;;;3.60;3.10;;;;;;;18.91;84.21;96374.36;110699;1258;22164;-77
2023/07/13 03:32:48;;;;;;;3.80;3.00;;;;;;;18.92;84.35;96375.54;110684;1272;22815;-77
2023/07/13 03:35:21;;;;;;;4.70;3.30;;;;;;;18.94;84.33;96373.52;110688;1265;22418;-78
2023/07/13 03:37:54;;;;;;;3.30;3.00;;;;;;;18.95;84.42;96378.62;110682;1272;22157;-77
2023/07/13 03:40:29;;;;;;;3.40;2.90;;;;;;;18.97;84.42;96383.80;110680;1268;23364;-77
2023/07/13 03:43:02;;;;;;;5.10;3.00;;;;;;;18.97;84.41;96388.28;110711;1272;22325;-77
2023/07/13 03:45:34;;;;;;;3.50;3.00;;;;;;;18.95;84.27;96380.32;110653;1272;24433;-77
2023/07/13 03:48:07;;;;;;;3.70;3.20;;;;;;;18.94;84.28;96380.28;110698;1272;22346;-77
2023/07/13 03:50:40;;;;;;;4.30;3.10;;;;;;;18.95;84.56;96378.62;110733;1268;22154;-78
2023/07/13 03:53:13;;;;;;;5.00;3.70;;;;;;;18.94;84.33;96381.35;110664;1272;22200;-77
2023/07/13 03:55:45;;;;;;;4.80;3.50;;;;;;;18.92;84.53;96384.29;110671;1266;24017;-78
2023/07/13 03:58:35;;;;;;;6.80;3.70;;;;;;;18.91;84.54;96376.27;110702;1267;22253;-77
2023/07/13 04:01:09;;;;;;;5.20;3.60;;;;;;;18.91;84.69;96369.84;110677;1265;22161;-77
2023/07/13 04:03:42;;;;;;;4.90;3.40;;;;;;;18.91;84.72;96374.58;110696;1268;22191;-77
2023/07/13 04:06:20;;;;;;;4.00;3.10;;;;;;;18.88;84.56;96379.55;110656;1266;22944;-77
2023/07/13 04:08:53;;;;;;;3.70;3.10;;;;;;;18.80;84.78;96384.08;110363;1269;22577;-77
2023/07/13 04:11:32;;;;;;;4.00;3.00;;;;;;;18.75;85.06;96384.98;108648;1272;23992;-76
2023/07/13 04:14:03;;;;;;;4.10;3.30;;;;;;;18.72;85.10;96383.80;109184;1266;23052;-77
2023/07/13 04:16:35;;;;;;;5.00;3.30;;;;;;;18.65;85.33;96378.91;108659;1272;22560;-76
2023/07/13 04:19:07;;;;;;;4.80;3.10;;;;;;;18.67;85.73;96384.65;108658;1272;25361;-76
2023/07/13 04:21:39;;;;;;;3.80;3.40;;;;;;;18.71;85.83;96384.22;108517;1273;22655;-77
2023/07/13 04:24:10;;;;;;;5.30;3.50;;;;;;;18.75;85.95;96390.75;108566;1272;24299;-77
2023/07/13 04:26:42;;;;;;;4.40;3.40;;;;;;;18.82;86.08;96394.41;108504;1271;23691;-77
2023/07/13 04:29:17;;;;;;;4.80;4.10;;;;;;;18.92;86.23;96399.17;108504;1271;22947;-76
2023/07/13 04:31:50;;;;;;;4.50;4.00;;;;;;;18.98;86.16;96398.52;110626;1273;22153;-77
2023/07/13 04:34:23;;;;;;;5.50;4.00;;;;;;;19.04;86.20;96396.09;110569;1272;22486;-77
2023/07/13 04:36:56;;;;;;;4.30;3.70;;;;;;;19.08;86.08;96396.50;110663;1266;22420;-77
2023/07/13 04:39:29;;;;;;;5.50;3.80;;;;;;;19.06;85.91;96396.75;110677;1269;22347;-78
2023/07/13 04:42:02;;;;;;;5.00;3.80;;;;;;;19.06;86.07;96395.15;110643;1270;22588;-76
2023/07/13 04:44:35;;;;;;;4.50;4.10;;;;;;;19.07;85.94;96379.21;110657;1272;22554;-77
2023/07/13 04:47:09;;;;;;;4.50;3.80;;;;;;;19.05;86.01;96376.00;110689;1268;22225;-78
2023/07/13 04:49:41;;;;;;;6.60;4.10;;;;;;;19.02;86.03;96370.31;110651;1272;22318;-77
2023/07/13 04:52:14;;;;;;;4.60;3.90;;;;;;;19.04;86.51;96370.75;110699;1261;22178;-77
2023/07/13 04:54:46;;;;;;;4.80;4.30;;;;;;;19.14;87.01;96364.60;110671;1272;22404;-78
2023/07/13 04:57:19;;;;;;;4.10;3.70;;;;;;;19.31;87.14;96357.71;110695;1265;22933;-77
2023/07/13 04:59:51;;;;;;;4.50;3.70;;;;;;;19.48;87.19;96351.23;110654;1272;22393;-78
2023/07/13 05:02:26;;;;;;;5.70;4.10;;;;;;;19.63;86.78;96337.91;110659;1272;22235;-77
2023/07/13 05:05:00;;;;;;;5.20;4.50;;;;;;;19.76;86.85;96333.58;110643;1265;22944;-78
2023/07/13 05:07:38;;;;;;;4.70;3.70;;;;;;;19.88;86.76;96329.81;110702;1250;22358;-77
2023/07/13 05:10:12;;;;;;;4.80;3.80;;;;;;;20.01;86.80;96329.16;110688;1268;22348;-77
2023/07/13 05:12:44;;;;;;;5.90;4.60;;;;;;;20.22;86.78;96334.08;110669;1272;22224;-77
2023/07/13 05:15:20;;;;;;;7.00;4.80;;;;;;;20.45;86.82;96334.11;109895;1272;996503;-77
2023/07/13 05:17:52;;;;;;;7.40;4.50;;;;;;;20.81;87.02;96333.02;110707;1272;22357;-77
2023/07/13 05:20:30;;;;;;;6.00;4.30;;;;;;;21.32;87.29;96321.19;110677;1267;22172;-77
2023/07/13 05:23:03;;;;;;;4.90;3.80;;;;;;;22.07;87.96;96315.78;110701;1272;22210;-78
2023/07/13 05:25:36;;;;;;;4.70;4.10;;;;;;;22.99;86.23;96316.31;110637;1272;22305;-78
2023/07/13 05:28:08;;;;;;;5.90;4.10;;;;;;;23.52;83.12;96314.39;110689;1268;22227;-77
2023/07/13 05:30:41;;;;;;;5.40;4.20;;;;;;;23.89;81.95;96307.54;110689;1268;22276;-77
2023/07/13 05:33:13;;;;;;;5.20;3.50;;;;;;;24.50;80.75;96308.40;110694;1272;22170;-78
2023/07/13 05:35:48;;;;;;;6.30;4.30;;;;;;;24.81;78.48;96306.15;110634;1272;22175;-77
2023/07/13 05:38:21;;;;;;;5.90;3.80;;;;;;;24.88;76.27;96308.06;110648;1272;22232;-77
2023/07/13 05:41:01;;;;;;;5.10;4.00;;;;;;;24.84;75.45;96306.95;110691;1265;22158;-77
2023/07/13 05:43:37;;;;;;;4.50;3.80;;;;;;;24.89;74.40;96308.21;110648;1268;22971;-77
2023/07/13 05:46:26;;;;;;;5.00;3.50;;;;;;;24.91;73.94;96306.91;110611;1272;22359;-77
2023/07/13 05:49:04;;;;;;;9.90;4.10;;;;;;;25.18;74.34;96305.00;110641;1266;22376;-77
2023/07/13 05:51:46;;;;;;;4.10;3.60;;;;;;;25.59;73.74;96306.80;110642;1267;22198;-76
2023/07/13 05:54:36;;;;;;;5.70;4.00;;;;;;;25.94;72.80;96305.90;110620;1272;23183;-76
2023/07/13 05:57:16;;;;;;;4.70;3.90;;;;;;;26.19;71.86;96310.60;110651;1272;22294;-76
2023/07/13 05:59:51;;;;;;;4.20;3.60;;;;;;;26.46;71.32;96312.66;110643;1266;22402;-76
2023/07/13 06:02:24;;;;;;;4.60;4.10;;;;;;;26.65;70.36;96313.28;110679;1272;22131;-76
2023/07/13 06:04:56;;;;;;;4.50;3.60;;;;;;;26.62;69.37;96322.29;110622;1266;22239;-76
2023/07/13 06:07:28;;;;;;;7.60;4.20;;;;;;;26.70;68.63;96319.25;110646;1269;22190;-76
2023/07/13 06:10:01;;;;;;;6.50;4.10;;;;;;;26.94;68.39;96324.51;110639;1266;22834;-73
2023/07/13 06:12:35;;;;;;;4.90;3.70;;;;;;;27.19;67.74;96331.32;110642;1268;22460;-74
2023/07/13 06:15:09;;;;;;;4.80;3.80;;;;;;;27.49;67.60;96334.88;110649;1272;23232;-73
2023/07/13 06:17:40;;;;;;;5.30;4.50;;;;;;;27.80;66.94;96326.36;110615;1272;22884;-73
2023/07/13 06:20:13;;;;;;;8.10;3.60;;;;;;;27.77;65.88;96325.05;110641;1269;23463;-74
2023/07/13 06:22:45;;;;;;;4.10;3.40;;;;;;;27.67;65.31;96321.91;110610;1266;22257;-73
2023/07/13 06:25:18;;;;;;;5.80;3.70;;;;;;;27.57;64.77;96328.08;110648;1268;22246;-74
2023/07/13 06:27:51;;;;;;;5.80;3.60;;;;;;;27.39;64.52;96329.71;110662;1272;23337;-73
2023/07/13 06:30:26;;;;;;;5.30;3.60;;;;;;;27.26;64.71;96334.33;110621;1265;22973;-73
2023/07/13 06:33:00;;;;;;;5.40;3.40;;;;;;;27.42;65.63;96332.10;110688;1272;22239;-73
2023/07/13 06:35:37;;;;;;;5.80;3.80;;;;;;;27.61;64.37;96326.67;110625;1266;22242;-72
2023/07/13 06:38:24;;;;;;;5.00;3.90;;;;;;;27.20;63.29;96333.96;110654;1272;22180;-73
2023/07/13 06:40:56;;;;;;;4.30;3.10;;;;;;;26.89;63.49;96333.06;109798;1272;25394;-73
2023/07/13 06:43:30;;;;;;;5.00;3.50;;;;;;;26.92;63.52;96338.80;110664;1272;22454;-73
2023/07/13 06:46:03;;;;;;;3.60;3.30;;;;;;;26.97;63.03;96342.45;108851;1272;24509;-73
2023/07/13 06:48:34;;;;;;;5.40;3.60;;;;;;;26.98;62.34;96346.88;108625;1269;25292;-72
2023/07/13 06:51:05;;;;;;;6.60;3.90;;;;;;;26.95;61.90;96341.99;108640;1266;22527;-73
2023/07/13 06:53:37;;;;;;;4.30;3.50;;;;;;;26.85;61.85;96337.81;108658;1268;22555;-74
2023/07/13 06:56:08;;;;;;;4.70;3.70;;;;;;;26.98;61.98;96330.95;108734;1262;24199;-74
2023/07/13 06:58:40;;;;;;;4.00;3.60;;;;;;;27.12;61.90;96330.24;108613;1271;22523;-74
2023/07/13 07:01:12;;;;;;;5.10;3.60;;;;;;;27.33;61.36;96330.11;108709;1272;24174;-74
2023/07/13 07:03:45;;;;;;;5.20;3.50;;;;;;;27.44;60.62;96333.58;108725;1267;22522;-74
2023/07/13 07:06:19;;;;;;;4.60;3.10;;;;;;;27.45;60.27;96328.75;109212;1272;25315;-74
2023/07/13 07:08:51;;;;;;;5.20;3.40;;;;;;;27.48;59.76;96330.23;108730;1271;25397;-74
2023/07/13 07:11:25;;;;;;;5.40;3.60;;;;;;;27.68;59.93;96325.95;108720;1271;22525;-74
2023/07/13 07:13:57;;;;;;;4.40;3.20;;;;;;;27.78;59.23;96322.02;108744;1268;22942;-74
2023/07/13 07:16:32;;;;;;;4.60;3.50;;;;;;;27.74;58.90;96318.23;108761;1272;22572;-74
2023/07/13 07:19:08;;;;;;;5.40;3.60;;;;;;;27.84;59.49;96315.60;108722;1272;22537;-74
2023/07/13 07:21:39;;;;;;;5.50;3.80;;;;;;;28.01;60.94;96317.36;108746;1272;22522;-74
2023/07/13 07:24:15;;;;;;;6.40;4.30;;;;;;;28.19;61.50;96316.77;108727;1272;22907;-74
2023/07/13 07:26:48;;;;;;;5.80;4.30;;;;;;;28.08;61.02;96313.81;108802;1272;22529;-75
2023/07/13 07:29:26;;;;;;;4.40;3.70;;;;;;;27.74;61.02;96315.73;108738;1272;23177;-75
2023/07/13 07:31:57;;;;;;;4.90;3.50;;;;;;;27.43;61.64;96322.06;108703;1269;25287;-74
2023/07/13 07:34:33;;;;;;;5.30;4.50;;;;;;;27.21;61.93;96330.45;108705;1272;22502;-75
2023/07/13 07:37:06;;;;;;;6.40;4.10;;;;;;;26.76;62.17;96328.10;108680;1269;25754;-75
2023/07/13 07:39:41;;;;;;;6.00;4.10;;;;;;;26.24;63.16;96332.65;108680;1272;22544;-74
2023/07/13 07:42:15;;;;;;;6.20;4.70;;;;;;;26.02;64.78;96331.53;108732;1272;22794;-75
2023/07/13 07:44:49;;;;;;;4.90;4.40;;;;;;;25.90;65.39;96329.80;108697;1272;22553;-75
2023/07/13 07:47:22;;;;;;;5.60;4.20;;;;;;;25.69;65.39;96329.19;108693;1269;24224;-74
2023/07/13 07:49:54;;;;;;;5.30;4.20;;;;;;;25.38;65.70;96327.72;108732;1272;25340;-74
2023/07/13 07:52:25;;;;;;;5.80;4.30;;;;;;;25.18;66.79;96327.01;108734;1268;22531;-74
2023/07/13 07:54:59;;;;;;;5.60;4.50;;;;;;;25.05;67.24;96326.70;108729;1272;22517;-74
2023/07/13 07:57:34;;;;;;;6.30;4.20;;;;;;;24.86;67.68;96326.64;108743;1272;22525;-74
2023/07/13 08:00:06;;;;;;;5.70;4.10;;;;;;;24.75;68.56;96329.88;108756;1272;22589;-74
2023/07/13 08:02:41;;;;;;;5.80;4.40;;;;;;;24.69;68.78;96324.52;108776;1272;22521;-75
2023/07/13 08:05:18;;;;;;;8.30;4.60;;;;;;;24.55;69.29;96325.34;108496;1265;22539;-74
2023/07/13 08:07:52;;;;;;;5.80;4.60;;;;;;;24.52;70.05;96326.71;108408;1266;24793;-74
2023/07/13 08:10:29;;;;;;;4.80;4.30;;;;;;;24.55;70.72;96326.65;108254;1263;25356;-73
2023/07/13 08:13:04;;;;;;;10.40;4.50;;;;;;;24.60;71.08;96330.55;108685;1268;22549;-74
2023/07/13 08:15:35;;;;;;;6.20;5.00;;;;;;;24.64;71.36;96330.83;108660;1269;22618;-74
2023/07/13 08:18:09;;;;;;;5.80;4.80;;;;;;;24.64;71.43;96334.23;108265;1266;22518;-74
2023/07/13 08:20:44;;;;;;;6.40;4.70;;;;;;;24.64;71.75;96334.86;108489;1269;22572;-74
2023/07/13 08:23:21;;;;;;;6.20;4.30;;;;;;;24.61;72.13;96334.52;108507;1269;24330;-73
2023/07/13 08:26:04;;;;;;;7.20;4.30;;;;;;;24.59;72.31;96337.05;108762;1272;22529;-74
2023/07/13 08:28:47;;;;;;;5.10;4.40;;;;;;;24.59;72.54;96330.23;108829;1269;25380;-74
2023/07/13 08:31:29;;;;;;;5.30;4.60;;;;;;;24.59;72.76;96327.06;108720;1270;22528;-74
2023/07/13 08:34:15;;;;;;;4.50;3.80;;;;;;;24.61;73.18;96324.20;108815;1272;25449;-74
2023/07/13 08:36:51;;;;;;;5.00;4.30;;;;;;;24.56;72.73;96326.98;108781;1270;25217;-74
2023/07/13 08:39:27;;;;;;;6.10;4.50;;;;;;;24.46;72.33;96328.20;108678;1272;22649;-73
2023/07/13 08:42:06;;;;;;;5.60;4.30;;;;;;;24.39;72.61;96333.80;108879;1272;22573;-74
2023/07/13 08:44:57;;;;;;;5.00;4.40;;;;;;;24.31;72.36;96329.84;108826;1270;22516;-74
2023/07/13 08:47:36;;;;;;;5.70;4.20;;;;;;;24.12;72.33;96331.60;108750;1272;25307;-74
2023/07/13 08:50:16;;;;;;;6.40;4.70;;;;;;;24.04;72.97;96330.80;108774;1266;22515;-74
2023/07/13 08:52:48;;;;;;;6.40;4.30;;;;;;;24.02;73.28;96330.79;108755;1272;22500;-74
2023/07/13 08:55:28;;;;;;;7.70;4.70;;;;;;;23.95;72.88;96323.61;108797;1272;24213;-74
2023/07/13 08:58:12;;;;;;;5.50;4.60;;;;;;;23.83;73.01;96324.89;108775;1272;22654;-74
2023/07/13 09:01:09;;;;;;;5.10;4.60;;;;;;;23.75;73.14;96322.63;108758;1272;23849;-74
2023/07/13 09:03:49;;;;;;;6.30;4.60;;;;;;;23.69;73.57;96321.25;109975;1267;24261;-75
2023/07/13 09:06:31;;;;;;;5.60;4.70;;;;;;;23.66;74.03;96317.44;108798;1270;25428;-74
2023/07/13 09:09:15;;;;;;;7.10;5.10;;;;;;;23.62;73.67;96313.67;108763;1270;22520;-73
2023/07/13 09:11:57;;;;;;;8.70;5.80;;;;;;;23.41;73.85;96310.38;108735;1272;22559;-73
2023/07/13 09:14:41;;;;;;;7.40;5.80;;;;;;;23.20;74.52;96306.88;108758;1272;25297;-74
2023/07/13 09:17:18;;;;;;;8.60;5.60;;;;;;;23.02;74.97;96304.72;108761;1272;22589;-74
2023/07/13 09:20:01;;;;;;;8.50;5.90;;;;;;;22.86;75.74;96308.96;108723;1272;22517;-74
2023/07/13 09:22:41;;;;;;;6.90;6.00;;;;;;;22.75;76.43;96310.02;108775;1269;22553;-74
2023/07/13 09:25:28;;;;;;;8.50;5.80;;;;;;;22.66;77.28;96307.41;108801;1268;22510;-74
2023/07/13 09:28:03;;;;;;;8.50;6.00;;;;;;;22.66;78.35;96306.31;108812;1269;22540;-74
2023/07/13 09:30:39;;;;;;;7.80;6.10;;;;;;;22.72;79.06;96303.57;108723;1267;24258;-74
2023/07/13 09:33:11;;;;;;;8.50;6.90;;;;;;;22.76;79.08;96307.10;108659;1269;22519;-74
2023/07/13 09:35:45;;;;;;;7.20;5.90;;;;;;;22.78;79.36;96305.10;108519;1258;22519;-74
2023/07/13 09:38:20;;;;;;;10.40;7.20;;;;;;;22.75;79.38;96316.96;108592;1267;22535;-74
2023/07/13 09:41:03;;;;;;;9.80;6.90;;;;;;;22.71;79.82;96314.52;108816;1272;22545;-74
2023/07/13 09:43:34;;;;;;;9.20;7.20;;;;;;;22.68;80.24;96324.89;108814;1270;22527;-74
2023/07/13 09:46:21;;;;;;;11.00;7.20;;;;;;;22.62;80.56;96328.50;108589;1267;22523;-74
2023/07/13 09:48:57;;;;;;;9.40;6.50;;;;;;;22.56;80.82;96329.20;108728;1271;22530;-75
2023/07/13 09:51:31;;;;;;;8.00;6.60;;;;;;;22.54;81.29;96329.09;108763;1267;22556;-76
2023/07/13 09:54:06;;;;;;;9.20;6.90;;;;;;;22.52;81.26;96332.89;108648;1271;22520;-77
2023/07/13 10:00:26;;;;;;;9.80;7.20;;;;;;;22.40;81.98;96338.13;108692;1267;23355;-76
2023/07/13 10:03:07;;;;;;;8.30;7.40;;;;;;;22.32;82.34;96339.13;108588;1266;22541;-77
2023/07/13 10:05:43;;;;;;;10.80;7.60;;;;;;;22.21;82.57;96341.35;108524;1267;67151;-76
2023/07/13 10:08:27;;;;;;;11.90;7.80;;;;;;;22.13;83.03;96347.62;108687;1258;23411;-77
2023/07/13 10:11:09;;;;;;;8.50;7.10;;;;;;;22.06;83.42;96350.24;108719;1272;22514;-76
2023/07/13 10:13:46;;;;;;;11.60;7.70;;;;;;;22.05;83.97;96350.98;109440;1272;22528;-76
2023/07/13 10:16:18;;;;;;;10.80;7.20;;;;;;;22.03;84.33;96350.95;108755;1272;22531;-76
2023/07/13 10:18:52;;;;;;;7.30;5.30;;;;;;;22.01;84.25;96349.84;108742;1269;22540;-76
2023/07/13 10:21:28;;;;;;;4.70;4.20;;;;;;;21.92;82.86;96357.84;108743;1272;22564;-76
2023/07/13 10:24:37;;;;;;;5.60;4.80;;;;;;;21.83;82.01;96365.31;108770;1272;22622;-76
2023/07/13 10:27:19;;;;;;;5.10;4.10;;;;;;;21.54;81.43;96357.49;108747;1257;22534;-77
2023/07/13 10:29:54;;;;;;;4.40;3.40;;;;;;;21.27;81.04;96351.53;108719;1271;22522;-77
2023/07/13 10:32:27;;;;;;;3.70;2.50;;;;;;;21.09;79.56;96350.83;108787;1272;22540;-77
2023/07/13 10:35:01;;;;;;;4.50;3.10;;;;;;;20.89;78.77;96356.85;108708;1269;24670;-76
2023/07/13 10:37:40;;;;;;;5.50;3.10;;;;;;;20.57;78.33;96364.80;108750;1271;22558;-77
2023/07/13 10:40:18;;;;;;;5.50;3.20;;;;;;;20.24;78.14;96367.64;108713;1272;22554;-77
2023/07/13 10:42:54;;;;;;;6.10;3.30;;;;;;;19.90;78.22;96375.92;108783;1272;22571;-76
2023/07/13 10:45:35;;;;;;;5.90;3.30;;;;;;;19.65;78.49;96383.89;108747;1266;22562;-77
2023/07/13 10:48:13;;;;;;;5.80;3.00;;;;;;;19.39;78.58;96395.81;108853;1267;22556;-76
2023/07/13 10:50:46;;;;;;;5.50;3.60;;;;;;;19.16;78.91;96412.64;108793;1271;25434;-77
2023/07/13 10:53:29;;;;;;;4.70;3.10;;;;;;;18.95;79.37;96410.69;108868;1271;23990;-77
2023/07/13 10:56:05;;;;;;;4.80;2.90;;;;;;;18.84;80.19;96402.92;108795;1270;22522;-77
2023/07/13 10:58:39;;;;;;;5.00;3.30;;;;;;;18.86;80.77;96401.67;108748;1269;22523;-77
2023/07/13 11:01:14;;;;;;;4.10;3.00;;;;;;;18.88;81.13;96407.89;108757;1271;22497;-77
2023/07/13 11:04:01;;;;;;;4.20;2.90;;;;;;;18.90;81.40;96414.00;108580;1266;22584;-77
2023/07/13 11:10:52;;;;;;;3.80;2.90;;;;;;;18.89;81.53;96444.83;108351;1266;22535;-76
2023/07/13 11:13:58;;;;;;;;;;;;;;;18.80;82.03;96450.20;108804;1271;24208;-76
2023/07/13 11:35:27;;;;;;;5.20;2.80;;;;;;;18.65;83.80;96491.38;107713;1267;23842;-76
2023/07/13 11:38:03;;;;;;;3.80;2.30;;;;;;;18.66;83.97;96498.10;108667;1273;22933;-76
2023/07/13 11:40:35;;;;;;;4.00;2.50;;;;;;;18.69;83.72;96501.39;108543;1273;22528;-75
2023/07/13 11:43:13;;;;;;;3.90;3.00;;;;;;;18.62;83.39;96501.86;108530;1273;25250;-76
2023/07/13 11:45:45;;;;;;;3.70;2.70;;;;;;;18.55;83.62;96493.70;108629;1273;22555;-76
2023/07/13 11:48:28;;;;;;;3.30;2.50;;;;;;;18.54;84.11;96489.04;108511;1273;22533;-76
2023/07/13 11:51:05;;;;;;;4.40;2.40;;;;;;;18.54;84.30;96493.36;108695;1273;24292;-76
2023/07/13 11:53:41;;;;;;;3.40;2.50;;;;;;;18.52;84.33;96496.67;108676;1273;22550;-76
2023/07/13 12:03:28;;;;;;;3.10;2.50;;;;;;;18.38;85.59;96504.55;108977;1271;22576;-76
2023/07/13 12:24:26;;;;;;;2.60;2.00;;;;;;;18.51;86.65;96564.59;108612;1268;22639;-76
2023/07/13 12:27:03;;;;;;;1.00;0.90;;;;;;;18.44;86.67;96572.17;108483;1267;26293;-76
2023/07/13 12:29:35;;;;;;;1.70;0.80;;;;;;;18.37;86.91;96581.83;108694;1272;22534;-76
2023/07/13 12:32:18;;;;;;;2.20;1.10;;;;;;;18.37;87.39;96582.58;108552;1266;25263;-77
2023/07/13 12:34:57;;;;;;;0.50;0.50;;;;;;;18.37;87.42;96584.48;108702;1272;25406;-76
2023/07/13 12:37:31;;;;;;;0.60;0.60;;;;;;;18.34;87.30;96587.39;108728;1265;22521;-76
2023/07/13 12:40:09;;;;;;;1.50;0.90;;;;;;;18.33;87.74;96594.04;108702;1272;22634;-75
2023/07/13 12:42:42;;;;;;;1.90;1.60;;;;;;;18.34;87.92;96587.77;108703;1272;22650;-76
2023/07/13 12:45:24;;;;;;;1.10;1.00;;;;;;;18.32;87.94;96584.00;108551;1266;22526;-76
2023/07/13 12:48:00;;;;;;;1.60;1.30;;;;;;;18.32;88.05;96577.59;108789;1270;22991;-76
2023/07/13 12:50:42;;;;;;;1.10;0.80;;;;;;;18.37;88.21;96574.52;108764;1267;22517;-76
2023/07/13 12:53:19;;;;;;;1.30;0.90;;;;;;;18.41;88.13;96572.35;108610;1264;22522;-76
2023/07/13 12:55:59;;;;;;;0.70;0.60;;;;;;;18.43;88.13;96573.85;108686;1267;22540;-77